Time;durP1;ratioP1;P1;durP2;ratioP2;P2;SDS_P1;SDS_P2;PMS_P1;PMS_P2;Temp;Humidity;BMP_temperature;BMP_pressure;BME280_temperature;BME280_humidity;BME280_pressure;Samples;Min_cycle;Max_cycle;Signal;HPM_P1;HPM_P2
2023/06/04 00:02:12;;;;;;;0.50;0.30;;;;;;;6.82;100.00;100507.83;104889;1257;72058;-47
2023/06/04 00:04:39;;;;;;;0.80;0.40;;;;;;;6.82;100.00;100508.54;104901;1261;60445;-47
2023/06/04 00:07:07;;;;;;;0.90;0.40;;;;;;;6.80;100.00;100506.08;105239;1256;60330;-46
2023/06/04 00:09:34;;;;;;;1.50;0.50;;;;;;;6.75;100.00;100506.55;104980;1258;72597;-46
2023/06/04 00:12:02;;;;;;;0.70;0.30;;;;;;;6.68;100.00;100505.27;105047;1257;66409;-46
2023/06/04 00:14:29;;;;;;;3.30;0.40;;;;;;;6.61;100.00;100504.19;106011;1258;72668;-46
2023/06/04 00:16:56;;;;;;;0.70;0.30;;;;;;;6.52;100.00;100504.55;105097;1261;60541;-47
2023/06/04 00:19:24;;;;;;;1.20;0.40;;;;;;;6.43;100.00;100507.02;104938;1257;60541;-46
2023/06/04 00:21:51;;;;;;;0.70;0.40;;;;;;;6.40;100.00;100507.61;105120;1260;73954;-46
2023/06/04 00:24:19;;;;;;;1.10;0.40;;;;;;;6.37;100.00;100510.72;104974;1256;66995;-47
2023/06/04 00:26:46;;;;;;;1.40;0.40;;;;;;;6.33;100.00;100509.90;105002;1257;72203;-46
2023/06/04 00:29:13;;;;;;;0.50;0.40;;;;;;;6.30;100.00;100507.81;105070;1260;60700;-46
2023/06/04 00:31:41;;;;;;;1.00;0.40;;;;;;;6.27;100.00;100507.17;105076;1260;61183;-46
2023/06/04 00:34:10;;;;;;;0.60;0.30;;;;;;;6.24;100.00;100513.45;105386;1260;73712;-46
2023/06/04 00:36:39;;;;;;;0.70;0.40;;;;;;;6.23;100.00;100508.84;105969;1263;67967;-45
2023/06/04 00:39:06;;;;;;;2.30;0.40;;;;;;;6.23;100.00;100509.00;105330;1262;71295;-45
2023/06/04 00:41:33;;;;;;;1.30;0.40;;;;;;;6.26;100.00;100510.56;105154;1257;60705;-43
2023/06/04 00:44:01;;;;;;;0.60;0.30;;;;;;;6.28;100.00;100510.38;105176;1261;60555;-45
2023/06/04 00:46:29;;;;;;;0.50;0.30;;;;;;;6.27;100.00;100512.88;105902;1258;73346;-46
2023/06/04 00:48:56;;;;;;;0.50;0.30;;;;;;;6.26;100.00;100510.04;104974;1263;66744;-43
2023/06/04 00:51:24;;;;;;;2.30;0.40;;;;;;;6.26;100.00;100513.61;105240;1261;73615;-45
2023/06/04 00:53:51;;;;;;;0.70;0.30;;;;;;;6.27;100.00;100516.80;105429;1259;60414;-44
2023/06/04 00:56:19;;;;;;;1.30;0.40;;;;;;;6.27;100.00;100519.46;105150;1257;59839;-45
2023/06/04 00:58:47;;;;;;;1.10;0.40;;;;;;;6.27;100.00;100519.29;105357;1256;73116;-46
2023/06/04 01:01:45;;;;;;;0.80;0.50;;;;;;;6.26;100.00;100522.87;105364;1256;66698;-45
2023/06/04 01:04:19;;;;;;;1.10;0.30;;;;;;;6.22;100.00;100521.15;105525;1260;71964;-44
2023/06/04 01:06:49;;;;;;;0.90;0.40;;;;;;;6.14;100.00;100519.15;105599;1259;60641;-45
2023/06/04 01:09:17;;;;;;;1.50;0.30;;;;;;;6.07;100.00;100519.29;105397;1256;60797;-44
2023/06/04 01:11:44;;;;;;;1.30;0.40;;;;;;;6.01;100.00;100521.89;105278;1257;73852;-47
2023/06/04 01:14:12;;;;;;;1.30;0.40;;;;;;;5.95;100.00;100525.04;105507;1260;68614;-44
2023/06/04 01:16:49;;;;;;;3.10;0.40;;;;;;;5.91;100.00;100524.38;105225;1257;71169;-46
2023/06/04 01:19:24;;;;;;;1.20;0.40;;;;;;;5.89;100.00;100525.11;105428;1261;60565;-45
2023/06/04 01:21:53;;;;;;;4.00;0.30;;;;;;;5.87;100.00;100525.70;106054;1256;61394;-46
2023/06/04 01:24:21;;;;;;;2.70;0.30;;;;;;;5.83;100.00;100523.41;105952;1257;73876;-46
2023/06/04 01:26:49;;;;;;;1.90;0.40;;;;;;;5.80;100.00;100519.36;105301;1259;67870;-46
2023/06/04 01:29:17;;;;;;;0.60;0.30;;;;;;;5.78;100.00;100520.13;108754;1258;71818;-47
2023/06/04 01:31:45;;;;;;;13.10;0.70;;;;;;;5.76;100.00;100523.19;108834;1255;63081;-47
2023/06/04 01:34:12;;;;;;;0.80;0.30;;;;;;;5.74;100.00;100527.31;108873;1255;59847;-47
2023/06/04 01:36:39;;;;;;;2.10;0.30;;;;;;;5.71;100.00;100530.18;108836;1255;73880;-47
2023/06/04 01:39:07;;;;;;;2.10;0.30;;;;;;;5.69;100.00;100530.05;108836;1255;66661;-47
2023/06/04 01:41:34;;;;;;;0.50;0.40;;;;;;;5.68;100.00;100534.71;108845;1257;72160;-44
2023/06/04 01:44:02;;;;;;;1.50;0.30;;;;;;;5.67;100.00;100537.40;108928;1256;58244;-44
2023/06/04 01:46:29;;;;;;;1.20;0.40;;;;;;;5.66;100.00;100537.05;108849;1256;59917;-45
2023/06/04 01:48:56;;;;;;;2.00;0.40;;;;;;;5.65;100.00;100540.63;108827;1255;72971;-46
2023/06/04 01:51:24;;;;;;;0.30;0.30;;;;;;;5.64;100.00;100544.38;105282;1256;70328;-45
2023/06/04 01:53:51;;;;;;;0.70;0.40;;;;;;;5.63;100.00;100545.10;105193;1260;72729;-43
2023/06/04 01:56:20;;;;;;;2.60;0.40;;;;;;;5.61;100.00;100543.36;105000;1257;60507;-46
2023/06/04 01:58:48;;;;;;;0.50;0.30;;;;;;;5.58;100.00;100540.21;108874;1257;60023;-46
2023/06/04 02:01:16;;;;;;;1.00;0.40;;;;;;;5.55;100.00;100539.70;106828;1258;73788;-45
2023/06/04 02:03:44;;;;;;;1.50;0.40;;;;;;;5.55;100.00;100539.89;108756;1255;66362;-44
2023/06/04 02:06:12;;;;;;;1.30;0.40;;;;;;;5.56;100.00;100541.83;108825;1256;72520;-45
2023/06/04 02:08:41;;;;;;;1.40;0.40;;;;;;;5.57;100.00;100546.98;108770;1256;59004;-44
2023/06/04 02:11:08;;;;;;;0.50;0.40;;;;;;;5.56;100.00;100546.99;105542;1256;60397;-47
2023/06/04 02:13:36;;;;;;;0.60;0.40;;;;;;;5.57;100.00;100550.02;104944;1258;73893;-45
2023/06/04 02:16:03;;;;;;;1.30;0.30;;;;;;;5.58;100.00;100548.58;105267;1256;69898;-43
2023/06/04 02:18:31;;;;;;;0.50;0.40;;;;;;;5.59;100.00;100552.13;108649;1257;72235;-45
2023/06/04 02:20:58;;;;;;;0.40;0.30;;;;;;;5.60;100.00;100554.97;105384;1260;60833;-45
2023/06/04 02:23:26;;;;;;;1.40;0.30;;;;;;;5.60;100.00;100558.88;106928;1256;60535;-44
2023/06/04 02:25:54;;;;;;;0.80;0.40;;;;;;;5.60;100.00;100558.35;107034;1260;73913;-44
2023/06/04 02:28:22;;;;;;;1.80;0.30;;;;;;;5.59;100.00;100559.77;105477;1257;67777;-44
2023/06/04 02:30:49;;;;;;;2.30;0.30;;;;;;;5.59;100.00;100566.02;104805;1256;72770;-44
2023/06/04 02:33:17;;;;;;;1.40;0.50;;;;;;;5.59;100.00;100563.52;104911;1257;62978;-43
2023/06/04 02:35:44;;;;;;;0.50;0.20;;;;;;;5.59;100.00;100557.64;104905;1257;61063;-43
2023/06/04 02:38:12;;;;;;;0.50;0.30;;;;;;;5.59;100.00;100556.40;104933;1256;74005;-45
2023/06/04 02:40:39;;;;;;;0.40;0.30;;;;;;;5.56;100.00;100560.17;104928;1255;66627;-45
2023/06/04 02:43:07;;;;;;;4.00;0.30;;;;;;;5.54;100.00;100564.83;104985;1261;71810;-44
2023/06/04 02:45:34;;;;;;;2.30;0.30;;;;;;;5.56;100.00;100568.19;104997;1257;60555;-43
2023/06/04 02:48:02;;;;;;;0.60;0.40;;;;;;;5.59;100.00;100568.33;105005;1256;60483;-45
2023/06/04 02:50:29;;;;;;;0.70;0.30;;;;;;;5.62;100.00;100572.02;105008;1256;72678;-44
2023/06/04 02:52:57;;;;;;;1.90;0.30;;;;;;;5.62;100.00;100574.67;104940;1258;66998;-43
2023/06/04 02:55:24;;;;;;;0.90;0.70;;;;;;;5.62;100.00;100573.43;104996;1261;72127;-44
2023/06/04 02:57:52;;;;;;;0.70;0.40;;;;;;;5.63;100.00;100578.04;104915;1256;60483;-43
2023/06/04 03:00:19;;;;;;;1.10;0.30;;;;;;;5.65;100.00;100581.76;105047;1258;60468;-45
2023/06/04 03:02:47;;;;;;;0.60;0.40;;;;;;;5.69;100.00;100582.95;105198;1260;72818;-44
2023/06/04 03:05:17;;;;;;;1.40;0.40;;;;;;;5.75;100.00;100589.10;105692;1255;68667;-43
2023/06/04 03:07:45;;;;;;;0.60;0.30;;;;;;;5.81;100.00;100588.11;105483;1256;71429;-42
2023/06/04 03:10:13;;;;;;;1.40;0.30;;;;;;;5.87;100.00;100589.09;105743;1256;61327;-43
2023/06/04 03:12:41;;;;;;;1.50;0.40;;;;;;;5.97;100.00;100589.31;105496;1256;60519;-44
2023/06/04 03:15:09;;;;;;;0.70;0.30;;;;;;;6.05;100.00;100594.88;105307;1262;71692;-45
2023/06/04 03:17:36;;;;;;;0.60;0.40;;;;;;;6.12;100.00;100593.16;105185;1262;66708;-44
2023/06/04 03:20:06;;;;;;;3.50;0.30;;;;;;;6.20;100.00;100597.30;105480;1259;71724;-42
2023/06/04 03:22:35;;;;;;;0.60;0.30;;;;;;;6.28;100.00;100597.68;105523;1263;61128;-41
2023/06/04 03:25:03;;;;;;;2.00;0.40;;;;;;;6.39;100.00;100599.45;105384;1255;61316;-44
2023/06/04 03:27:32;;;;;;;0.40;0.30;;;;;;;6.50;100.00;100594.80;105418;1260;73739;-44
2023/06/04 03:29:59;;;;;;;0.70;0.30;;;;;;;6.62;100.00;100590.12;105585;1260;67119;-42
2023/06/04 03:32:32;;;;;;;0.50;0.30;;;;;;;6.73;100.00;100591.87;105589;1263;71926;-44
2023/06/04 03:35:00;;;;;;;1.80;0.30;;;;;;;6.84;100.00;100593.79;106157;1257;62840;-42
2023/06/04 03:37:27;;;;;;;0.60;0.30;;;;;;;6.96;100.00;100596.75;105442;1260;62205;-42
2023/06/04 03:39:55;;;;;;;1.30;0.30;;;;;;;7.09;100.00;100594.19;105360;1260;73204;-43
2023/06/04 03:42:23;;;;;;;0.60;0.40;;;;;;;7.21;100.00;100597.30;105265;1255;67194;-43
2023/06/04 03:44:50;;;;;;;2.20;0.40;;;;;;;7.35;100.00;100602.71;105378;1261;72357;-44
2023/06/04 03:47:19;;;;;;;1.60;0.40;;;;;;;7.49;100.00;100602.05;105231;1261;60519;-42
2023/06/04 03:49:47;;;;;;;2.50;0.40;;;;;;;7.65;100.00;100601.34;105668;1261;60688;-42
2023/06/04 03:52:14;;;;;;;0.40;0.30;;;;;;;7.79;100.00;100599.58;105256;1256;73620;-43
2023/06/04 03:54:42;;;;;;;1.90;0.40;;;;;;;7.93;100.00;100598.53;106077;1257;67691;-44
2023/06/04 03:57:09;;;;;;;0.60;0.30;;;;;;;8.06;100.00;100595.87;105113;1255;72198;-43
2023/06/04 03:59:37;;;;;;;3.40;0.40;;;;;;;8.20;100.00;100595.70;105193;1256;61796;-41
2023/06/04 04:02:05;;;;;;;0.60;0.40;;;;;;;8.34;100.00;100593.40;105159;1256;60494;-43
2023/06/04 04:04:33;;;;;;;2.50;0.40;;;;;;;8.50;100.00;100599.09;105198;1257;72467;-43
2023/06/04 04:07:00;;;;;;;2.10;0.30;;;;;;;8.65;100.00;100599.20;105237;1260;67603;-43
2023/06/04 04:09:28;;;;;;;1.60;0.30;;;;;;;8.81;100.00;100610.05;105374;1257;70763;-44
2023/06/04 04:11:55;;;;;;;5.40;0.50;;;;;;;8.97;100.00;100619.09;105216;1257;60537;-46
2023/06/04 04:14:23;;;;;;;2.60;0.40;;;;;;;9.13;100.00;100618.98;105300;1257;60423;-41
2023/06/04 04:16:50;;;;;;;1.80;0.40;;;;;;;9.29;100.00;100618.71;105259;1256;73933;-42
2023/06/04 04:19:18;;;;;;;1.40;0.40;;;;;;;9.44;100.00;100618.61;105219;1259;68254;-44
2023/06/04 04:21:48;;;;;;;1.90;0.40;;;;;;;9.59;100.00;100620.14;105188;1261;71015;-42
2023/06/04 04:24:26;;;;;;;0.70;0.40;;;;;;;9.73;100.00;100623.84;105493;1261;60467;-43
2023/06/04 04:26:58;;;;;;;1.50;0.40;;;;;;;9.89;100.00;100626.36;105399;1258;60601;-43
2023/06/04 04:29:27;;;;;;;3.00;0.30;;;;;;;10.02;100.00;100620.55;105724;1256;75857;-42
2023/06/04 04:31:56;;;;;;;0.60;0.30;;;;;;;10.14;100.00;100623.39;108927;1258;67585;-45
2023/06/04 04:34:26;;;;;;;1.00;0.30;;;;;;;10.28;100.00;100623.52;108797;1255;71233;-43
2023/06/04 04:36:54;;;;;;;2.50;0.30;;;;;;;10.40;100.00;100617.54;108893;1256;61285;-44
2023/06/04 04:39:25;;;;;;;0.10;0.10;;;;;;;10.53;100.00;100619.77;108859;1257;59980;-42
2023/06/04 04:41:54;;;;;;;0.60;0.10;;;;;;;10.71;100.00;100619.88;108848;1255;73818;-44
2023/06/04 04:44:21;;;;;;;0.50;0.20;;;;;;;10.87;100.00;100624.51;108762;1255;66971;-43
2023/06/04 04:46:49;;;;;;;0.40;0.10;;;;;;;11.02;100.00;100627.02;108877;1257;71478;-44
2023/06/04 04:49:16;;;;;;;0.20;0.10;;;;;;;11.19;100.00;100628.02;106136;1257;60331;-44
2023/06/04 04:51:44;;;;;;;2.30;0.10;;;;;;;11.31;100.00;100621.42;105330;1257;60502;-45
2023/06/04 04:54:11;;;;;;;0.70;0.10;;;;;;;11.45;100.00;100625.98;105285;1261;74345;-45
2023/06/04 04:56:39;;;;;;;0.30;0.20;;;;;;;11.57;100.00;100625.33;105183;1257;70300;-47
2023/06/04 04:59:07;;;;;;;1.00;0.30;;;;;;;11.69;100.00;100626.80;105268;1257;72499;-43
2023/06/04 05:01:35;;;;;;;0.40;0.10;;;;;;;11.82;100.00;100627.26;105151;1260;60146;-47
2023/06/04 05:07:03;;;;;;;0.30;0.10;;;;;;;12.09;100.00;100629.75;102302;1295;600157;-43
2023/06/04 05:09:30;;;;;;;2.00;0.10;;;;;;;12.21;100.00;100635.74;104216;1273;59785;-45
2023/06/04 05:11:58;;;;;;;2.70;0.10;;;;;;;12.34;100.00;100636.08;107885;1269;60066;-46
2023/06/04 05:14:27;;;;;;;4.30;0.40;;;;;;;12.48;100.00;100640.53;107714;1269;73603;-44
2023/06/04 05:16:58;;;;;;;0.20;0.10;;;;;;;12.61;100.00;100645.40;105976;1276;67376;-44
2023/06/04 05:19:25;;;;;;;2.30;0.20;;;;;;;12.73;100.00;100652.42;104316;1273;72332;-43
2023/06/04 05:21:53;;;;;;;0.10;0.00;;;;;;;12.86;100.00;100652.77;104266;1267;295402;-44
2023/06/04 05:24:21;;;;;;;1.10;0.10;;;;;;;12.98;100.00;100649.36;104220;1267;59955;-42
2023/06/04 05:26:48;;;;;;;0.40;0.20;;;;;;;13.10;100.00;100651.92;104936;1272;72802;-44
2023/06/04 05:29:18;;;;;;;0.60;0.10;;;;;;;13.21;100.00;100651.80;104320;1268;68127;-43
2023/06/04 05:31:46;;;;;;;1.30;0.10;;;;;;;13.30;100.00;100650.30;105449;1270;72097;-45
2023/06/04 05:34:16;;;;;;;1.10;0.20;;;;;;;13.41;100.00;100646.75;104874;1267;60387;-44
2023/06/04 05:36:44;;;;;;;0.20;0.10;;;;;;;13.50;100.00;100652.62;104527;1269;59943;-43
2023/06/04 05:39:11;;;;;;;1.50;0.10;;;;;;;13.59;100.00;100652.91;104506;1269;71003;-44
2023/06/04 05:41:50;;;;;;;4.90;0.10;;;;;;;13.68;100.00;100656.49;105218;1268;67450;-42
2023/06/04 05:44:18;;;;;;;0.70;0.10;;;;;;;13.76;100.00;100652.31;105490;1264;75410;-43
2023/06/04 05:46:45;;;;;;;1.50;0.10;;;;;;;13.84;100.00;100652.64;105311;1264;60383;-44
2023/06/04 05:49:13;;;;;;;0.10;0.00;;;;;;;13.92;100.00;100656.04;104757;1277;59976;-43
2023/06/04 05:51:41;;;;;;;0.80;0.10;;;;;;;14.02;100.00;100656.14;104470;1267;73792;-44
2023/06/04 05:54:08;;;;;;;0.60;0.20;;;;;;;14.09;100.00;100656.17;104369;1269;66658;-45
2023/06/04 05:56:37;;;;;;;6.70;0.10;;;;;;;14.13;100.00;100655.77;104661;1269;74014;-45
2023/06/04 05:59:05;;;;;;;0.10;0.10;;;;;;;14.19;100.00;100659.25;104526;1269;59886;-45
2023/06/04 06:01:32;;;;;;;0.20;0.10;;;;;;;14.26;100.00;100659.99;104949;1269;59641;-46
2023/06/04 06:04:00;;;;;;;0.10;0.10;;;;;;;14.31;100.00;100664.60;104921;1268;75407;-42
2023/06/04 06:06:29;;;;;;;0.00;0.00;;;;;;;14.38;100.00;100669.51;105882;1264;66374;-47
2023/06/04 06:08:58;;;;;;;0.20;0.10;;;;;;;14.46;100.00;100670.41;104743;1268;72634;-42
2023/06/04 06:11:26;;;;;;;0.10;0.10;;;;;;;14.53;100.00;100667.20;104544;1269;60371;-42
2023/06/04 06:13:55;;;;;;;0.20;0.10;;;;;;;14.58;100.00;100672.90;104716;1268;59797;-43
2023/06/04 06:16:22;;;;;;;0.20;0.10;;;;;;;14.63;100.00;100675.35;104508;1264;73664;-43
2023/06/04 06:18:50;;;;;;;0.10;0.00;;;;;;;14.68;100.00;100670.41;104493;1267;67991;-43
2023/06/04 06:21:17;;;;;;;1.60;0.00;;;;;;;14.73;100.00;100669.01;104837;1273;70919;-44
2023/06/04 06:23:45;;;;;;;0.10;0.00;;;;;;;14.78;100.00;100671.48;104856;1268;59819;-44
2023/06/04 06:26:13;;;;;;;1.00;0.00;;;;;;;14.84;100.00;100671.35;104890;1264;59902;-47
2023/06/04 06:28:46;;;;;;;0.20;0.10;;;;;;;14.91;100.00;100671.33;104893;1264;73328;-44
2023/06/04 06:31:14;;;;;;;0.10;0.00;;;;;;;14.99;100.00;100667.89;104389;1269;67423;-45
2023/06/04 06:33:42;;;;;;;0.10;0.10;;;;;;;15.08;100.00;100673.55;104396;1269;72646;-45
2023/06/04 06:36:12;;;;;;;0.20;0.10;;;;;;;15.18;100.00;100671.40;104410;1267;60436;-44
2023/06/04 06:38:40;;;;;;;0.10;0.10;;;;;;;15.28;100.00;100677.91;104692;1264;59840;-47
2023/06/04 06:41:07;;;;;;;0.10;0.00;;;;;;;15.36;100.00;100672.08;104796;1270;73644;-47
2023/06/04 06:43:35;;;;;;;0.30;0.10;;;;;;;15.45;100.00;100673.92;105001;1263;67585;-44
2023/06/04 06:46:02;;;;;;;0.20;0.10;;;;;;;15.54;100.00;100678.52;104985;1265;72633;-45
2023/06/04 06:48:30;;;;;;;0.20;0.10;;;;;;;15.60;100.00;100677.30;104508;1263;59862;-46
2023/06/04 06:50:58;;;;;;;1.10;0.20;;;;;;;15.61;100.00;100675.99;104626;1262;63521;-44
2023/06/04 06:53:25;;;;;;;0.80;0.10;;;;;;;15.62;100.00;100674.15;104818;1264;75933;-47
2023/06/04 06:55:52;;;;;;;0.20;0.10;;;;;;;15.65;100.00;100672.84;104774;1267;69332;-43
2023/06/04 06:58:21;;;;;;;0.00;0.00;;;;;;;15.69;100.00;100676.44;104856;1268;72465;-43
2023/06/04 07:00:49;;;;;;;0.30;0.10;;;;;;;15.70;100.00;100671.86;106235;1269;60235;-44
2023/06/04 07:03:16;;;;;;;1.90;0.10;;;;;;;15.71;100.00;100676.89;104728;1265;59609;-44
2023/06/04 07:05:44;;;;;;;0.30;0.10;;;;;;;15.73;100.00;100679.68;104545;1264;74514;-47
2023/06/04 07:08:11;;;;;;;1.00;0.10;;;;;;;15.76;100.00;100680.57;104519;1264;67579;-43
2023/06/04 07:10:39;;;;;;;0.10;0.10;;;;;;;15.81;100.00;100680.48;104660;1264;74851;-45
2023/06/04 07:13:06;;;;;;;0.10;0.10;;;;;;;15.85;100.00;100681.13;104601;1269;60531;-43
2023/06/04 07:15:33;;;;;;;0.20;0.10;;;;;;;15.91;100.00;100679.77;104650;1269;59925;-45
2023/06/04 07:18:01;;;;;;;0.10;0.00;;;;;;;15.95;100.00;100678.98;104740;1264;73292;-45
2023/06/04 07:20:30;;;;;;;0.10;0.10;;;;;;;15.97;100.00;100681.05;104737;1270;67681;-46
2023/06/04 07:22:58;;;;;;;0.20;0.10;;;;;;;15.99;100.00;100680.23;108441;1263;71591;-45
2023/06/04 07:25:25;;;;;;;0.90;0.10;;;;;;;16.03;100.00;100679.65;108453;1262;61094;-45
2023/06/04 07:27:53;;;;;;;0.20;0.10;;;;;;;16.07;100.00;100680.67;106482;1270;60420;-48
2023/06/04 07:30:20;;;;;;;0.40;0.10;;;;;;;16.13;100.00;100686.11;105080;1261;71761;-43
2023/06/04 07:32:47;;;;;;;0.10;0.10;;;;;;;16.18;100.00;100688.35;104836;1267;67217;-46
2023/06/04 07:35:15;;;;;;;0.20;0.10;;;;;;;16.24;100.00;100685.83;104473;1264;73681;-47
2023/06/04 07:37:45;;;;;;;0.10;0.10;;;;;;;16.31;100.00;100682.02;108498;1259;58910;-45
2023/06/04 07:40:12;;;;;;;0.30;0.10;;;;;;;16.38;100.00;100682.18;106524;1260;60022;-46
2023/06/04 07:42:40;;;;;;;0.60;0.20;;;;;;;16.42;100.00;100673.91;104300;1262;73081;-47
2023/06/04 07:45:08;;;;;;;0.20;0.10;;;;;;;16.48;100.00;100676.15;104404;1266;67585;-48
2023/06/04 07:47:36;;;;;;;0.10;0.10;;;;;;;16.52;100.00;100675.53;104466;1261;72862;-46
2023/06/04 07:50:04;;;;;;;0.20;0.10;;;;;;;16.56;100.00;100672.21;108571;1260;59280;-47
2023/06/04 07:52:32;;;;;;;0.40;0.20;;;;;;;16.60;100.00;100673.78;108425;1260;58692;-48
2023/06/04 07:55:00;;;;;;;0.30;0.10;;;;;;;16.66;100.00;100677.83;108527;1260;71786;-48
2023/06/04 07:57:27;;;;;;;0.10;0.10;;;;;;;16.73;100.00;100675.25;108624;1260;68095;-48
2023/06/04 07:59:56;;;;;;;0.10;0.10;;;;;;;16.80;100.00;100675.16;108533;1265;71243;-46
2023/06/04 08:02:24;;;;;;;0.10;0.10;;;;;;;16.88;100.00;100674.88;108563;1260;58756;-46
2023/06/04 08:04:51;;;;;;;0.10;0.10;;;;;;;16.96;100.00;100671.14;108565;1260;59393;-46
2023/06/04 08:07:19;;;;;;;1.50;0.10;;;;;;;17.07;100.00;100674.11;105858;1265;71155;-46
2023/06/04 08:09:46;;;;;;;1.60;0.10;;;;;;;17.20;100.00;100672.05;104651;1261;67485;-47
2023/06/04 08:12:15;;;;;;;0.70;0.10;;;;;;;17.27;100.00;100672.66;104811;1265;71807;-46
2023/06/04 08:14:43;;;;;;;0.20;0.10;;;;;;;17.35;100.00;100678.36;104561;1260;59780;-46
2023/06/04 08:17:10;;;;;;;1.30;0.10;;;;;;;17.45;100.00;100678.83;104508;1261;60039;-44
2023/06/04 08:19:37;;;;;;;0.10;0.10;;;;;;;17.53;100.00;100673.95;104739;1260;72140;-46
2023/06/04 08:22:06;;;;;;;0.10;0.10;;;;;;;17.60;100.00;100672.98;104946;1262;70027;-46
2023/06/04 08:24:33;;;;;;;3.40;0.10;;;;;;;17.65;100.00;100672.52;104683;1264;72500;-49
2023/06/04 08:27:00;;;;;;;0.20;0.10;;;;;;;17.65;100.00;100674.17;104868;1264;60707;-44
2023/06/04 08:29:28;;;;;;;0.30;0.10;;;;;;;17.58;100.00;100671.30;104833;1267;59203;-47
2023/06/04 08:31:55;;;;;;;0.40;0.10;;;;;;;17.56;100.00;100670.32;105296;1261;72401;-44
2023/06/04 08:34:23;;;;;;;2.10;0.10;;;;;;;17.61;100.00;100663.49;105287;1260;67865;-45
2023/06/04 08:36:50;;;;;;;0.20;0.10;;;;;;;17.64;100.00;100663.82;105072;1257;73056;-47
2023/06/04 08:39:17;;;;;;;0.20;0.10;;;;;;;17.66;100.00;100657.73;105016;1260;59739;-43
2023/06/04 08:41:52;;;;;;;0.20;0.10;;;;;;;17.69;100.00;100653.40;104950;1260;59570;-45
2023/06/04 08:44:21;;;;;;;3.00;0.30;;;;;;;17.75;100.00;100656.08;105183;1260;73237;-49
2023/06/04 08:46:52;;;;;;;1.70;0.10;;;;;;;17.85;100.00;100653.29;105218;1254;66470;-46
2023/06/04 08:49:21;;;;;;;0.10;0.10;;;;;;;17.95;100.00;100648.27;105473;1254;72950;-44
2023/06/04 08:51:50;;;;;;;0.60;0.20;;;;;;;18.04;100.00;100648.73;105161;1257;60105;-48
2023/06/04 08:54:18;;;;;;;0.10;0.10;;;;;;;18.09;100.00;100648.96;105346;1260;59743;-45
2023/06/04 08:56:46;;;;;;;0.30;0.10;;;;;;;18.12;100.00;100646.77;105318;1263;72781;-47
2023/06/04 08:59:14;;;;;;;0.40;0.10;;;;;;;18.18;100.00;100646.95;104975;1254;67951;-48
2023/06/04 09:01:44;;;;;;;0.10;0.10;;;;;;;18.25;100.00;100649.39;107593;1259;71278;-46
2023/06/04 09:04:12;;;;;;;0.50;0.10;;;;;;;18.32;100.00;100644.58;105629;1254;59734;-46
2023/06/04 09:06:41;;;;;;;0.60;0.10;;;;;;;18.32;100.00;100642.00;105255;1260;59529;-46
2023/06/04 09:09:09;;;;;;;0.20;0.10;;;;;;;18.35;100.00;100636.33;104915;1254;75741;-47
2023/06/04 09:11:59;;;;;;;0.30;0.20;;;;;;;18.38;100.00;100635.04;105208;1259;67062;-45
2023/06/04 09:14:26;;;;;;;1.90;0.20;;;;;;;18.42;100.00;100634.27;105123;1254;72355;-49
2023/06/04 09:16:55;;;;;;;0.20;0.10;;;;;;;18.48;100.00;100632.20;104994;1254;61285;-46
2023/06/04 09:19:22;;;;;;;0.20;0.20;;;;;;;18.55;100.00;100630.27;105089;1254;60889;-48
2023/06/04 09:21:54;;;;;;;0.30;0.20;;;;;;;18.61;100.00;100626.27;104701;1254;73667;-47
2023/06/04 09:24:23;;;;;;;0.40;0.10;;;;;;;18.65;100.00;100627.77;104652;1254;67596;-50
2023/06/04 09:26:50;;;;;;;1.30;0.10;;;;;;;18.67;100.00;100626.73;105371;1256;71341;-47
2023/06/04 09:29:18;;;;;;;0.20;0.10;;;;;;;18.65;100.00;100617.10;105242;1254;60881;-46
2023/06/04 09:31:47;;;;;;;0.20;0.10;;;;;;;18.62;100.00;100612.73;104655;1257;60413;-51
2023/06/04 09:34:15;;;;;;;0.20;0.20;;;;;;;18.60;100.00;100614.33;105075;1260;74296;-47
2023/06/04 09:36:42;;;;;;;1.50;0.10;;;;;;;18.61;100.00;100616.45;104925;1254;66513;-49
2023/06/04 09:39:16;;;;;;;1.80;0.20;;;;;;;18.58;100.00;100608.30;105196;1254;73145;-49
2023/06/04 09:41:44;;;;;;;2.00;0.20;;;;;;;18.50;100.00;100605.17;105727;1256;60516;-45
2023/06/04 09:44:12;;;;;;;0.20;0.10;;;;;;;18.39;100.00;100601.18;104971;1254;60944;-44
2023/06/04 09:46:39;;;;;;;0.20;0.10;;;;;;;18.33;100.00;100604.52;104949;1258;73941;-47
2023/06/04 09:49:07;;;;;;;0.10;0.10;;;;;;;18.31;100.00;100595.21;105247;1260;67516;-46
2023/06/04 09:51:34;;;;;;;0.80;0.20;;;;;;;18.28;100.00;100591.55;104405;1257;71227;-45
2023/06/04 09:54:03;;;;;;;0.20;0.10;;;;;;;18.28;100.00;100588.10;104383;1254;60417;-45
2023/06/04 09:56:39;;;;;;;0.10;0.10;;;;;;;18.29;100.00;100590.59;107231;1260;58614;-48
2023/06/04 09:59:08;;;;;;;0.40;0.20;;;;;;;18.31;100.00;100595.52;104436;1260;74114;-45
2023/06/04 10:01:38;;;;;;;0.30;0.20;;;;;;;18.27;100.00;100591.63;104471;1257;67862;-46
2023/06/04 10:04:07;;;;;;;1.70;0.20;;;;;;;18.18;100.00;100592.05;105753;1257;72252;-49
2023/06/04 10:06:35;;;;;;;0.30;0.10;;;;;;;18.12;100.00;100589.92;104692;1256;60404;-48
2023/06/04 10:09:07;;;;;;;0.20;0.10;;;;;;;18.05;100.00;100581.46;104573;1257;60469;-46
2023/06/04 10:11:37;;;;;;;0.10;0.10;;;;;;;18.01;100.00;100582.84;105179;1259;73349;-45
2023/06/04 10:14:25;;;;;;;0.30;0.10;;;;;;;18.03;100.00;100578.33;105121;1260;68025;-49
2023/06/04 10:16:53;;;;;;;0.50;0.10;;;;;;;18.04;100.00;100579.91;105249;1256;71733;-50
2023/06/04 10:19:21;;;;;;;0.20;0.10;;;;;;;18.06;100.00;100587.61;108741;1256;60764;-45
2023/06/04 10:21:48;;;;;;;0.10;0.10;;;;;;;18.05;100.00;100585.49;108883;1254;60456;-50
2023/06/04 10:24:16;;;;;;;0.40;0.20;;;;;;;18.05;100.00;100577.66;108804;1255;75964;-46
2023/06/04 10:26:43;;;;;;;4.80;0.20;;;;;;;18.10;100.00;100575.86;107417;1258;67680;-47
2023/06/04 10:29:11;;;;;;;0.30;0.20;;;;;;;18.20;100.00;100568.52;104784;1256;72494;-48
2023/06/04 10:31:38;;;;;;;0.30;0.20;;;;;;;18.29;100.00;100566.80;104517;1259;60537;-48
2023/06/04 10:34:06;;;;;;;0.20;0.20;;;;;;;18.34;100.00;100563.73;104710;1260;60688;-46
2023/06/04 10:36:42;;;;;;;0.30;0.10;;;;;;;18.37;100.00;100560.05;104813;1256;71911;-47
2023/06/04 10:39:09;;;;;;;0.10;0.10;;;;;;;18.45;100.00;100557.17;104755;1258;67177;-45
2023/06/04 10:41:37;;;;;;;0.20;0.20;;;;;;;18.50;100.00;100556.98;104382;1256;72621;-45
2023/06/04 10:44:04;;;;;;;0.20;0.20;;;;;;;18.54;100.00;100551.84;104308;1257;60592;-49
2023/06/04 10:46:40;;;;;;;0.20;0.10;;;;;;;18.57;100.00;100549.66;104757;1256;61473;-46
2023/06/04 10:49:09;;;;;;;3.40;0.20;;;;;;;18.57;100.00;100547.49;108693;1256;74304;-49
2023/06/04 10:51:37;;;;;;;0.20;0.10;;;;;;;18.56;100.00;100540.41;108753;1256;67629;-46
2023/06/04 10:54:04;;;;;;;0.10;0.10;;;;;;;18.56;100.00;100531.88;108785;1256;72999;-47
2023/06/04 10:56:33;;;;;;;0.40;0.30;;;;;;;18.59;100.00;100528.44;108661;1256;59932;-49
2023/06/04 10:59:02;;;;;;;0.40;0.10;;;;;;;18.66;100.00;100528.48;108777;1256;58397;-46
2023/06/04 11:01:31;;;;;;;0.10;0.10;;;;;;;18.74;100.00;100527.59;108886;1255;73346;-47
2023/06/04 11:03:58;;;;;;;1.40;0.20;;;;;;;18.80;100.00;100519.65;107186;1259;67488;-45
2023/06/04 11:06:27;;;;;;;0.20;0.20;;;;;;;18.86;100.00;100517.64;105188;1264;73483;-44
2023/06/04 11:09:05;;;;;;;1.60;0.20;;;;;;;18.90;100.00;100515.52;108889;1256;59082;-47
2023/06/04 11:11:33;;;;;;;0.10;0.10;;;;;;;18.88;100.00;100514.54;106295;1257;60557;-46
2023/06/04 11:14:10;;;;;;;0.30;0.20;;;;;;;18.85;100.00;100505.30;105149;1263;73108;-46
2023/06/04 11:16:37;;;;;;;0.40;0.20;;;;;;;18.86;100.00;100504.72;105461;1256;67286;-44
2023/06/04 11:19:05;;;;;;;0.30;0.20;;;;;;;18.88;100.00;100506.55;106382;1257;74649;-45
2023/06/04 11:21:37;;;;;;;0.40;0.10;;;;;;;18.87;100.00;100507.36;105266;1259;60566;-46